Aviation Digital Data Service (ADDS)

Output produced by METARs form (0642 UTC 07 April 2020)
found at http://www.aviationweather.gov/metar/data/
 
LFRN 070630Z AUTO 09009KT 7000 -RA FEW011/// SCT027/// BKN048/// ///TCU 12/11 Q1026